createdAt,value
2023-02-14T00:00:48.572Z,9.00
2023-02-14T00:03:15.919Z,9.00
2023-02-14T00:05:42.999Z,9.00
2023-02-14T00:08:09.845Z,8.90
2023-02-14T00:10:36.841Z,8.90
2023-02-14T00:13:04.780Z,8.90
2023-02-14T00:15:31.517Z,8.90
2023-02-14T00:17:59.962Z,8.80
2023-02-14T00:20:28.328Z,8.80
2023-02-14T00:22:55.072Z,8.80
2023-02-14T00:25:21.981Z,8.70
2023-02-14T00:27:48.752Z,8.70
2023-02-14T00:30:15.778Z,8.70
2023-02-14T00:32:43.217Z,8.70
2023-02-14T00:35:10.951Z,8.70
2023-02-14T00:37:41.126Z,8.70
2023-02-14T00:40:08.907Z,8.70
2023-02-14T00:42:35.954Z,8.70
2023-02-14T00:45:02.797Z,8.70
2023-02-14T00:47:29.580Z,8.70
2023-02-14T00:50:02.599Z,8.60
2023-02-14T00:52:31.209Z,8.60
2023-02-14T00:54:58.245Z,8.60
2023-02-14T00:57:25.356Z,8.60
2023-02-14T00:59:52.107Z,8.60
2023-02-14T01:02:20.957Z,8.50
2023-02-14T01:04:47.778Z,8.50
2023-02-14T01:07:14.603Z,8.50
2023-02-14T01:09:42.154Z,8.50
2023-02-14T01:12:08.904Z,8.40
2023-02-14T01:14:36.082Z,8.40
2023-02-14T01:17:02.885Z,8.30
2023-02-14T01:19:29.643Z,8.30
2023-02-14T01:21:56.735Z,8.30
2023-02-14T01:24:25.054Z,8.30
2023-02-14T01:26:51.875Z,8.30
2023-02-14T01:29:18.730Z,8.30
2023-02-14T01:31:48.312Z,8.20
2023-02-14T01:34:15.276Z,8.20
2023-02-14T01:36:42.163Z,8.20
2023-02-14T01:39:13.731Z,8.20
2023-02-14T01:41:42.570Z,8.20
2023-02-14T01:44:15.213Z,8.20
2023-02-14T01:46:44.146Z,8.20
2023-02-14T01:49:27.504Z,8.10
2023-02-14T01:52:12.475Z,8.10
2023-02-14T01:54:43.682Z,8.00
2023-02-14T01:57:14.894Z,8.00
2023-02-14T01:59:47.775Z,8.00
2023-02-14T02:02:14.663Z,8.00
2023-02-14T02:04:46.536Z,7.90
2023-02-14T02:07:19.716Z,7.90
2023-02-14T02:09:54.763Z,7.90
2023-02-14T02:12:24.316Z,7.90
2023-02-14T02:14:55.218Z,7.90
2023-02-14T02:17:25.239Z,7.80
2023-02-14T02:20:13.260Z,7.80
2023-02-14T02:23:17.312Z,7.80
2023-02-14T02:26:05.863Z,7.80
2023-02-14T02:29:01.637Z,7.70
2023-02-14T02:31:59.813Z,7.70
2023-02-14T02:35:05.689Z,7.70
2023-02-14T02:37:56.139Z,7.70
2023-02-14T02:41:06.661Z,7.60
2023-02-14T02:43:52.235Z,7.60
2023-02-14T02:46:47.067Z,7.60
2023-02-14T02:50:07.266Z,7.60
2023-02-14T02:53:03.004Z,7.60
2023-02-14T02:56:03.694Z,7.60
2023-02-14T02:59:02.849Z,7.60
2023-02-14T03:01:34.407Z,7.50
2023-02-14T03:04:26.390Z,7.50
2023-02-14T03:06:55.406Z,7.50
2023-02-14T03:09:28.408Z,7.50
2023-02-14T03:12:13.283Z,7.50
2023-02-14T03:14:54.725Z,7.40
2023-02-14T03:17:45.551Z,7.40
2023-02-14T03:20:23.816Z,7.40
2023-02-14T03:23:15.060Z,7.40
2023-02-14T03:26:16.267Z,7.40
2023-02-14T03:28:52.428Z,7.40
2023-02-14T03:31:38.608Z,7.30
2023-02-14T03:34:45.208Z,7.30
2023-02-14T03:37:17.523Z,7.30
2023-02-14T03:39:51.922Z,7.30
2023-02-14T03:42:32.952Z,7.20
2023-02-14T03:45:01.402Z,7.20
2023-02-14T03:47:32.859Z,7.20
2023-02-14T03:50:09.142Z,7.10
2023-02-14T03:52:37.196Z,7.10
2023-02-14T03:55:06.828Z,7.10
2023-02-14T03:58:04.191Z,7.10
2023-02-14T04:00:34.624Z,7.10
2023-02-14T04:03:07.159Z,7.10
2023-02-14T04:05:34.106Z,7.00
2023-02-14T04:08:00.937Z,6.90
2023-02-14T04:10:28.048Z,6.80
2023-02-14T04:12:55.048Z,6.80
2023-02-14T04:15:21.836Z,6.70
2023-02-14T04:18:07.347Z,6.70
2023-02-14T04:20:34.380Z,6.70
2023-02-14T04:23:03.286Z,6.70
2023-02-14T04:25:30.663Z,6.70
2023-02-14T04:27:57.668Z,6.70
2023-02-14T04:30:24.648Z,6.70
2023-02-14T04:32:51.537Z,6.70
2023-02-14T04:35:18.456Z,6.60
2023-02-14T04:37:45.666Z,6.60
2023-02-14T04:40:16.855Z,6.60
2023-02-14T04:42:45.050Z,6.60
2023-02-14T04:45:12.817Z,6.60
2023-02-14T04:47:40.000Z,6.50
2023-02-14T04:50:07.479Z,6.50
2023-02-14T04:52:34.420Z,6.50
2023-02-14T04:55:01.459Z,6.50
2023-02-14T04:57:28.229Z,6.50
2023-02-14T04:59:55.155Z,6.40
2023-02-14T05:02:21.999Z,6.40
2023-02-14T05:04:49.904Z,6.30
2023-02-14T05:07:16.903Z,6.30
2023-02-14T05:09:43.664Z,6.30
2023-02-14T05:12:10.455Z,6.30
2023-02-14T05:14:37.297Z,6.30
2023-02-14T05:17:04.167Z,6.30
2023-02-14T05:19:30.984Z,6.30
2023-02-14T05:21:57.894Z,6.30
2023-02-14T05:24:24.818Z,6.30
2023-02-14T05:26:51.899Z,6.20
2023-02-14T05:29:18.810Z,6.20
2023-02-14T05:31:46.013Z,6.20
2023-02-14T05:34:13.095Z,6.20
2023-02-14T05:36:39.962Z,6.20
2023-02-14T05:39:06.878Z,6.10
2023-02-14T05:41:33.825Z,6.10
2023-02-14T05:44:00.561Z,6.00
2023-02-14T05:46:27.335Z,6.00
2023-02-14T05:48:54.192Z,6.00
2023-02-14T05:51:20.964Z,5.90
2023-02-14T05:53:47.977Z,5.90
2023-02-14T05:56:14.799Z,5.90
2023-02-14T05:58:41.744Z,5.90
2023-02-14T06:01:08.679Z,5.90
2023-02-14T06:03:35.595Z,5.90
2023-02-14T06:06:02.759Z,5.90
2023-02-14T06:08:29.636Z,5.90
2023-02-14T06:10:56.435Z,5.90
2023-02-14T06:13:24.836Z,5.90
2023-02-14T06:15:51.781Z,5.90
2023-02-14T06:18:18.829Z,5.90
2023-02-14T06:20:45.622Z,5.90
2023-02-14T06:23:12.454Z,5.90
2023-02-14T06:25:39.364Z,5.90
2023-02-14T06:28:06.710Z,5.90
2023-02-14T06:30:33.778Z,5.90
2023-02-14T06:33:00.691Z,5.90
2023-02-14T06:35:27.670Z,5.90
2023-02-14T06:37:54.957Z,5.90
2023-02-14T06:40:22.183Z,5.90
2023-02-14T06:42:49.184Z,5.90
2023-02-14T06:45:16.090Z,5.90
2023-02-14T06:47:43.096Z,5.90
2023-02-14T06:50:11.737Z,5.90
2023-02-14T06:52:39.264Z,5.90
2023-02-14T06:55:06.575Z,5.90
2023-02-14T06:57:33.365Z,5.90
2023-02-14T07:00:00.186Z,5.90
2023-02-14T07:02:27.008Z,5.90
2023-02-14T07:04:53.858Z,5.90
2023-02-14T07:07:20.687Z,5.90
2023-02-14T07:09:47.460Z,5.90
2023-02-14T07:12:14.267Z,5.90
2023-02-14T07:14:41.221Z,5.80
2023-02-14T07:17:08.122Z,5.90
2023-02-14T07:19:35.081Z,5.90
2023-02-14T07:22:03.129Z,5.90
2023-02-14T07:24:30.569Z,5.90
2023-02-14T07:26:57.517Z,5.90
2023-02-14T07:29:24.580Z,5.90
2023-02-14T07:31:51.624Z,5.90
2023-02-14T07:34:18.461Z,5.90
2023-02-14T07:36:45.293Z,6.00
2023-02-14T07:39:12.103Z,6.00
2023-02-14T07:41:39.193Z,5.90
2023-02-14T07:44:10.099Z,5.90
2023-02-14T07:46:37.123Z,5.90
2023-02-14T07:49:04.034Z,5.90
2023-02-14T07:51:31.012Z,6.00
2023-02-14T07:53:58.125Z,6.00
2023-02-14T07:56:25.124Z,6.10
2023-02-14T07:58:51.988Z,6.10
2023-02-14T08:01:19.180Z,6.10
2023-02-14T08:03:49.333Z,6.20
2023-02-14T08:06:17.907Z,6.20
2023-02-14T08:08:45.796Z,6.30
2023-02-14T08:11:33.073Z,6.40
2023-02-14T08:14:00.408Z,6.40
2023-02-14T08:16:27.430Z,6.50
2023-02-14T08:18:54.238Z,6.50
2023-02-14T08:21:21.134Z,6.60
2023-02-14T08:23:47.936Z,6.70
2023-02-14T08:26:15.057Z,6.80
2023-02-14T08:28:41.924Z,6.80
2023-02-14T08:31:09.727Z,6.90
2023-02-14T08:33:36.561Z,6.90
2023-02-14T08:36:04.093Z,7.00
2023-02-14T08:38:31.330Z,7.10
2023-02-14T08:41:04.356Z,7.10
2023-02-14T08:43:34.355Z,7.20
2023-02-14T08:46:02.048Z,7.30
2023-02-14T08:48:29.319Z,7.40
2023-02-14T08:50:56.179Z,7.50
2023-02-14T08:53:23.200Z,7.60
2023-02-14T08:55:50.070Z,7.70
2023-02-14T08:58:16.928Z,7.80
2023-02-14T09:00:43.906Z,7.90
2023-02-14T09:03:10.816Z,7.90
2023-02-14T09:05:37.938Z,8.00
2023-02-14T09:08:04.939Z,8.00
2023-02-14T09:10:31.818Z,8.10
2023-02-14T09:12:58.633Z,8.10
2023-02-14T09:15:25.440Z,8.20
2023-02-14T09:17:52.390Z,8.20
2023-02-14T09:20:19.759Z,8.30
2023-02-14T09:22:48.755Z,8.40
2023-02-14T09:25:16.326Z,8.50
2023-02-14T09:27:43.442Z,8.60
2023-02-14T09:30:11.164Z,8.70
2023-02-14T09:32:38.169Z,8.70
2023-02-14T09:35:24.120Z,8.80
2023-02-14T09:38:09.778Z,8.90
2023-02-14T09:40:36.747Z,9.00
2023-02-14T09:43:15.137Z,9.10
2023-02-14T09:45:43.721Z,9.20
2023-02-14T09:48:28.489Z,9.30
2023-02-14T09:51:03.895Z,9.40
2023-02-14T09:53:35.100Z,9.50
2023-02-14T09:56:17.326Z,9.70
2023-02-14T09:58:50.618Z,9.80
2023-02-14T10:01:22.044Z,9.90
2023-02-14T10:04:21.158Z,10.00
2023-02-14T10:07:24.143Z,10.10
2023-02-14T10:09:59.727Z,10.30
2023-02-14T10:12:33.760Z,10.40
2023-02-14T10:15:13.880Z,10.60
2023-02-14T10:18:05.306Z,10.70
2023-02-14T10:20:44.347Z,10.80
2023-02-14T10:23:22.790Z,10.90
2023-02-14T10:25:59.210Z,11.10
2023-02-14T10:28:42.529Z,11.20
2023-02-14T10:31:55.391Z,11.30
2023-02-14T10:34:37.611Z,11.50
2023-02-14T10:37:25.921Z,11.50
2023-02-14T10:40:05.934Z,11.60
2023-02-14T10:42:32.680Z,11.70
2023-02-14T10:45:20.929Z,11.70
2023-02-14T10:48:16.634Z,11.80
2023-02-14T10:51:15.409Z,11.90
2023-02-14T10:53:48.469Z,12.00
2023-02-14T10:56:23.253Z,12.10
2023-02-14T10:58:52.415Z,12.20
2023-02-14T11:01:20.006Z,12.30
2023-02-14T11:03:58.596Z,12.50
2023-02-14T11:06:25.619Z,12.60
2023-02-14T11:08:52.520Z,12.70
2023-02-14T11:11:40.600Z,12.70
2023-02-14T11:14:24.074Z,12.80
2023-02-14T11:16:52.216Z,12.90
2023-02-14T11:19:22.761Z,13.00
2023-02-14T11:21:50.969Z,13.20
2023-02-14T11:24:24.940Z,13.30
2023-02-14T11:26:53.100Z,13.50
2023-02-14T11:29:45.650Z,13.70
2023-02-14T11:32:23.361Z,13.80
2023-02-14T11:35:07.128Z,14.00
2023-02-14T11:37:37.601Z,14.10
2023-02-14T11:40:05.844Z,14.20
2023-02-14T11:42:45.399Z,14.30
2023-02-14T11:45:29.423Z,14.30
2023-02-14T11:48:10.579Z,14.30
2023-02-14T11:50:38.771Z,14.30
2023-02-14T11:53:11.214Z,14.40
2023-02-14T11:55:38.465Z,14.50
2023-02-14T11:58:07.998Z,14.60
2023-02-14T12:00:35.186Z,14.80
2023-02-14T12:03:05.634Z,14.80
2023-02-14T12:05:43.461Z,14.90
2023-02-14T12:08:10.751Z,14.90
2023-02-14T12:10:42.433Z,15.00
2023-02-14T12:13:09.311Z,15.20
2023-02-14T12:15:51.163Z,15.30
2023-02-14T12:18:22.525Z,15.50
2023-02-14T12:21:12.864Z,15.60
2023-02-14T12:23:51.883Z,15.80
2023-02-14T12:26:33.412Z,15.90
2023-02-14T12:29:12.847Z,15.90
2023-02-14T12:31:40.260Z,15.90
2023-02-14T12:34:09.516Z,16.00
2023-02-14T12:36:55.262Z,16.10
2023-02-14T12:39:42.110Z,16.10
2023-02-14T12:42:21.713Z,16.20
2023-02-14T12:44:54.862Z,16.20
2023-02-14T12:47:24.688Z,16.30
2023-02-14T12:50:24.239Z,16.30
2023-02-14T12:53:24.366Z,16.20
2023-02-14T12:56:19.557Z,16.40
2023-02-14T12:58:52.455Z,16.60
2023-02-14T13:01:52.248Z,16.70
2023-02-14T13:04:43.427Z,16.80
2023-02-14T13:08:04.114Z,16.90
2023-02-14T13:11:08.293Z,16.90
2023-02-14T13:13:53.597Z,17.00
2023-02-14T13:16:38.715Z,17.10
2023-02-14T13:19:26.417Z,17.20
2023-02-14T13:21:56.852Z,17.20
2023-02-14T13:24:29.506Z,17.30
2023-02-14T13:27:00.361Z,17.30
2023-02-14T13:29:44.036Z,17.30
2023-02-14T13:32:14.190Z,17.40
2023-02-14T13:34:48.960Z,17.40
2023-02-14T13:37:23.590Z,17.50
2023-02-14T13:40:05.112Z,17.50
2023-02-14T13:42:50.080Z,17.50
2023-02-14T13:45:32.785Z,17.50
2023-02-14T13:48:14.745Z,17.50
2023-02-14T13:50:52.613Z,17.50
2023-02-14T13:53:31.693Z,17.60
2023-02-14T13:55:59.880Z,17.70
2023-02-14T13:58:27.437Z,17.80
2023-02-14T14:00:55.024Z,17.90
2023-02-14T14:03:27.876Z,18.00
2023-02-14T14:06:11.855Z,18.00
2023-02-14T14:08:39.944Z,18.10
2023-02-14T14:11:35.619Z,17.90
2023-02-14T14:14:24.047Z,17.80
2023-02-14T14:16:59.466Z,17.80
2023-02-14T14:19:26.475Z,17.80
2023-02-14T14:22:08.572Z,17.90
2023-02-14T14:24:41.005Z,18.00
2023-02-14T14:27:19.804Z,18.10
2023-02-14T14:29:56.023Z,18.10
2023-02-14T14:32:26.357Z,18.10
2023-02-14T14:35:11.237Z,18.00
2023-02-14T14:37:47.571Z,18.00
2023-02-14T14:40:25.625Z,18.10
2023-02-14T14:42:53.286Z,18.10
2023-02-14T14:45:26.810Z,18.00
2023-02-14T14:47:56.773Z,18.00
2023-02-14T14:50:26.558Z,18.10
2023-02-14T14:52:57.260Z,18.10
2023-02-14T14:55:30.080Z,18.00
2023-02-14T14:58:04.207Z,17.90
2023-02-14T15:00:37.386Z,17.80
2023-02-14T15:03:12.360Z,17.70
2023-02-14T15:05:48.323Z,17.60
2023-02-14T15:08:34.064Z,17.60
2023-02-14T15:11:12.286Z,17.60
2023-02-14T15:13:51.340Z,17.50
2023-02-14T15:16:28.708Z,17.40
2023-02-14T15:19:00.214Z,17.40
2023-02-14T15:21:28.386Z,17.30
2023-02-14T15:23:55.408Z,17.30
2023-02-14T15:26:35.463Z,17.40
2023-02-14T15:29:05.416Z,17.30
2023-02-14T15:31:39.595Z,17.30
2023-02-14T15:34:07.959Z,17.20
2023-02-14T15:36:35.465Z,17.10
2023-02-14T15:39:06.615Z,17.10
2023-02-14T15:41:33.606Z,17.00
2023-02-14T15:44:00.757Z,16.90
2023-02-14T15:46:39.225Z,16.80
2023-02-14T15:49:10.619Z,16.70
2023-02-14T15:51:38.574Z,16.70
2023-02-14T15:54:33.316Z,16.70
2023-02-14T15:57:00.786Z,16.60
2023-02-14T15:59:31.027Z,16.50
2023-02-14T16:02:04.697Z,16.50
2023-02-14T16:04:33.959Z,16.40
2023-02-14T16:07:25.569Z,16.40
2023-02-14T16:10:18.142Z,16.30
2023-02-14T16:13:01.176Z,16.30
2023-02-14T16:15:33.979Z,16.30
2023-02-14T16:18:16.834Z,16.10
2023-02-14T16:20:51.143Z,16.10
2023-02-14T16:23:24.717Z,16.00
2023-02-14T16:25:52.152Z,15.90
2023-02-14T16:28:19.964Z,15.80
2023-02-14T16:30:52.751Z,15.70
2023-02-14T16:33:28.297Z,15.70
2023-02-14T16:36:01.530Z,15.60
2023-02-14T16:38:28.622Z,15.50
2023-02-14T16:40:56.141Z,15.40
2023-02-14T16:43:27.622Z,15.30
2023-02-14T16:45:54.799Z,15.20
2023-02-14T16:48:22.060Z,15.20
2023-02-14T16:50:50.860Z,15.10
2023-02-14T16:53:28.950Z,15.00
2023-02-14T16:55:57.806Z,14.90
2023-02-14T16:58:36.317Z,14.80
2023-02-14T17:01:03.815Z,14.70
2023-02-14T17:03:30.815Z,14.70
2023-02-14T17:06:00.190Z,14.60
2023-02-14T17:08:28.276Z,14.60
2023-02-14T17:10:57.299Z,14.50
2023-02-14T17:13:26.663Z,14.50
2023-02-14T17:15:53.986Z,14.40
2023-02-14T17:18:23.777Z,14.40
2023-02-14T17:20:50.779Z,14.30
2023-02-14T17:23:18.433Z,14.20
2023-02-14T17:25:45.775Z,14.20
2023-02-14T17:28:13.115Z,14.10
2023-02-14T17:30:40.519Z,14.10
2023-02-14T17:33:07.588Z,14.00
2023-02-14T17:35:38.266Z,13.90
2023-02-14T17:38:05.535Z,13.90
2023-02-14T17:40:32.492Z,13.80
2023-02-14T17:43:00.762Z,13.80
2023-02-14T17:45:27.664Z,13.70
2023-02-14T17:47:54.460Z,13.60
2023-02-14T17:50:22.093Z,13.60
2023-02-14T17:52:54.266Z,13.50
2023-02-14T17:55:21.325Z,13.50
2023-02-14T17:57:52.606Z,13.40
2023-02-14T18:00:23.927Z,13.40
2023-02-14T18:02:51.137Z,13.30
2023-02-14T18:05:18.540Z,13.20
2023-02-14T18:07:45.664Z,13.20
2023-02-14T18:10:12.644Z,13.20
2023-02-14T18:12:39.676Z,13.10
2023-02-14T18:15:07.251Z,13.00
2023-02-14T18:17:34.281Z,13.00
2023-02-14T18:20:01.582Z,13.00
2023-02-14T18:22:28.617Z,12.90
2023-02-14T18:24:58.831Z,12.90
2023-02-14T18:27:26.802Z,12.90
2023-02-14T18:29:53.923Z,12.80
2023-02-14T18:32:20.927Z,12.70
2023-02-14T18:34:48.116Z,12.70
2023-02-14T18:37:15.167Z,12.70
2023-02-14T18:39:42.226Z,12.60
2023-02-14T18:42:09.359Z,12.60
2023-02-14T18:44:36.492Z,12.50
2023-02-14T18:47:06.555Z,12.50
2023-02-14T18:49:33.755Z,12.50
2023-02-14T18:52:00.883Z,12.40
2023-02-14T18:54:28.874Z,12.30
2023-02-14T18:56:55.845Z,12.30
2023-02-14T18:59:23.138Z,12.30
2023-02-14T19:01:50.198Z,12.30
2023-02-14T19:04:18.010Z,12.30
2023-02-14T19:06:45.273Z,12.30
2023-02-14T19:09:14.738Z,12.20
2023-02-14T19:11:41.801Z,12.20
2023-02-14T19:14:13.361Z,12.20
2023-02-14T19:16:53.577Z,12.20
2023-02-14T19:19:22.895Z,12.20
2023-02-14T19:21:50.657Z,12.10
2023-02-14T19:24:18.839Z,12.00
2023-02-14T19:26:46.126Z,11.90
2023-02-14T19:29:16.398Z,11.90
2023-02-14T19:31:48.226Z,11.90
2023-02-14T19:34:23.106Z,11.80
2023-02-14T19:36:52.723Z,11.80
2023-02-14T19:39:21.193Z,11.70
2023-02-14T19:41:48.927Z,11.70
2023-02-14T19:44:17.047Z,11.70
2023-02-14T19:46:46.204Z,11.60
2023-02-14T19:49:15.868Z,11.60
2023-02-14T19:51:43.400Z,11.60
2023-02-14T19:54:13.256Z,11.50
2023-02-14T19:56:43.514Z,11.40
2023-02-14T19:59:11.538Z,11.40
2023-02-14T20:01:46.419Z,11.30
2023-02-14T20:04:19.559Z,11.30
2023-02-14T20:06:49.494Z,11.30
2023-02-14T20:09:16.970Z,11.20
2023-02-14T20:11:52.509Z,11.20
2023-02-14T20:14:24.817Z,11.20
2023-02-14T20:16:53.103Z,11.20
2023-02-14T20:19:22.061Z,11.10
2023-02-14T20:21:50.767Z,11.10
2023-02-14T20:24:21.238Z,11.10
2023-02-14T20:26:49.652Z,11.00
2023-02-14T20:29:17.732Z,11.00
2023-02-14T20:31:50.862Z,10.90
2023-02-14T20:34:19.216Z,10.90
2023-02-14T20:36:53.458Z,10.90
2023-02-14T20:39:21.480Z,10.80
2023-02-14T20:41:50.411Z,10.80
2023-02-14T20:44:21.263Z,10.80
2023-02-14T20:46:55.220Z,10.70
2023-02-14T20:49:24.670Z,10.70
2023-02-14T20:51:52.152Z,10.60
2023-02-14T20:54:21.370Z,10.60
2023-02-14T20:56:48.581Z,10.60
2023-02-14T20:59:15.598Z,10.60
2023-02-14T21:01:42.674Z,10.50
2023-02-14T21:04:09.654Z,10.50
2023-02-14T21:06:38.944Z,10.40
2023-02-14T21:09:06.990Z,10.40
2023-02-14T21:11:33.938Z,10.40
2023-02-14T21:14:01.529Z,10.30
2023-02-14T21:16:30.395Z,10.30
2023-02-14T21:18:59.734Z,10.20
2023-02-14T21:21:36.961Z,10.20
2023-02-14T21:24:10.133Z,10.20
2023-02-14T21:26:37.228Z,10.20
2023-02-14T21:29:04.992Z,10.20
2023-02-14T21:31:32.948Z,10.10
2023-02-14T21:34:01.686Z,10.10
2023-02-14T21:36:31.608Z,10.10
2023-02-14T21:38:59.766Z,10.10
2023-02-14T21:41:30.300Z,10.00
2023-02-14T21:43:59.254Z,10.00
2023-02-14T21:46:32.174Z,10.00
2023-02-14T21:49:19.182Z,9.90
2023-02-14T21:51:47.430Z,9.90
2023-02-14T21:54:15.602Z,9.90
2023-02-14T21:56:43.907Z,9.80
2023-02-14T21:59:11.506Z,9.80
2023-02-14T22:01:40.373Z,9.70
2023-02-14T22:04:09.333Z,9.80
2023-02-14T22:06:38.748Z,9.70
2023-02-14T22:09:06.382Z,9.70
2023-02-14T22:11:34.211Z,9.70
2023-02-14T22:14:01.220Z,9.70
2023-02-14T22:16:28.433Z,9.70
2023-02-14T22:18:55.316Z,9.60
2023-02-14T22:21:24.497Z,9.60
2023-02-14T22:23:51.508Z,9.60
2023-02-14T22:26:24.698Z,9.60
2023-02-14T22:28:55.865Z,9.60
2023-02-14T22:31:23.774Z,9.50
2023-02-14T22:33:51.088Z,9.50
2023-02-14T22:36:18.044Z,9.50
2023-02-14T22:38:45.680Z,9.50
2023-02-14T22:41:14.649Z,9.40
2023-02-14T22:43:42.598Z,9.40
2023-02-14T22:46:12.580Z,9.40
2023-02-14T22:48:40.103Z,9.30
2023-02-14T22:51:37.612Z,9.30
2023-02-14T22:54:07.684Z,9.20
2023-02-14T22:56:38.903Z,9.20
2023-02-14T22:59:09.016Z,9.20
2023-02-14T23:01:36.415Z,9.10
2023-02-14T23:04:04.648Z,9.10
2023-02-14T23:06:34.192Z,9.10
2023-02-14T23:09:02.734Z,9.00
2023-02-14T23:11:32.997Z,9.00
2023-02-14T23:14:18.808Z,9.00
2023-02-14T23:17:04.727Z,8.90
2023-02-14T23:19:52.013Z,8.90
2023-02-14T23:22:40.272Z,8.90
2023-02-14T23:25:10.071Z,8.80
2023-02-14T23:27:41.026Z,8.80
2023-02-14T23:30:10.871Z,8.80
2023-02-14T23:32:38.112Z,8.80
2023-02-14T23:35:05.671Z,8.70
2023-02-14T23:37:33.527Z,8.70
2023-02-14T23:40:00.519Z,8.70
2023-02-14T23:42:28.223Z,8.60
2023-02-14T23:45:15.187Z,8.60
2023-02-14T23:47:42.028Z,8.60
2023-02-14T23:50:09.289Z,8.60
2023-02-14T23:52:50.931Z,8.50
2023-02-14T23:55:21.613Z,8.50
2023-02-14T23:57:48.548Z,8.50
